createdAt,value
2022-10-05T00:00:14.570Z,7.83
2022-10-05T00:01:14.561Z,7.89
2022-10-05T00:02:14.593Z,7.97
2022-10-05T00:03:14.538Z,7.98
2022-10-05T00:04:14.719Z,8.01
2022-10-05T00:05:14.595Z,8.01
2022-10-05T00:06:14.513Z,8.02
2022-10-05T00:07:14.501Z,8.00
2022-10-05T00:08:14.498Z,7.97
2022-10-05T00:09:14.481Z,7.95
2022-10-05T00:10:14.479Z,7.93
2022-10-05T00:11:14.453Z,7.90
2022-10-05T00:12:14.455Z,7.90
2022-10-05T00:13:14.434Z,7.92
2022-10-05T00:14:14.535Z,7.93
2022-10-05T00:15:14.417Z,7.95
2022-10-05T00:16:14.433Z,7.95
2022-10-05T00:17:14.393Z,7.98
2022-10-05T00:18:14.412Z,8.00
2022-10-05T00:19:14.377Z,7.98
2022-10-05T00:20:14.379Z,7.97
2022-10-05T00:21:14.356Z,7.95
2022-10-05T00:22:14.365Z,7.92
2022-10-05T00:23:14.326Z,7.90
2022-10-05T00:24:14.339Z,7.87
2022-10-05T00:25:14.397Z,7.87
2022-10-05T00:26:14.304Z,7.85
2022-10-05T00:27:14.287Z,7.80
2022-10-05T00:28:14.335Z,7.80
2022-10-05T00:29:14.268Z,7.77
2022-10-05T00:30:15.074Z,7.77
2022-10-05T00:31:14.314Z,7.71
2022-10-05T00:32:14.243Z,7.71
2022-10-05T00:33:14.231Z,7.69
2022-10-05T00:34:14.228Z,7.67
2022-10-05T00:35:14.210Z,7.68
2022-10-05T00:36:14.203Z,7.68
2022-10-05T00:37:14.189Z,7.61
2022-10-05T00:38:14.218Z,7.63
2022-10-05T00:39:14.180Z,7.57
2022-10-05T00:40:14.159Z,7.58
2022-10-05T00:41:14.149Z,7.55
2022-10-05T00:42:14.242Z,7.52
2022-10-05T00:43:14.322Z,7.52
2022-10-05T00:44:14.119Z,7.53
2022-10-05T00:45:14.102Z,7.50
2022-10-05T00:46:14.142Z,7.49
2022-10-05T00:47:14.131Z,7.49
2022-10-05T00:48:14.083Z,7.48
2022-10-05T00:49:14.066Z,7.46
2022-10-05T00:50:14.113Z,7.48
2022-10-05T00:51:14.334Z,7.43
2022-10-05T00:52:14.046Z,7.46
2022-10-05T00:53:14.022Z,7.46
2022-10-05T00:54:18.208Z,7.43
2022-10-05T00:55:14.301Z,7.39
2022-10-05T00:56:14.010Z,7.37
2022-10-05T00:57:14.333Z,7.37
2022-10-05T00:58:13.984Z,7.35
2022-10-05T00:59:13.956Z,7.35
2022-10-05T01:00:13.960Z,7.37
2022-10-05T01:01:14.040Z,7.39
2022-10-05T01:02:14.027Z,7.37
2022-10-05T01:03:13.914Z,7.39
2022-10-05T01:04:13.917Z,7.37
2022-10-05T01:05:13.919Z,7.40
2022-10-05T01:06:13.886Z,7.40
2022-10-05T01:07:13.873Z,7.42
2022-10-05T01:08:13.866Z,7.45
2022-10-05T01:09:13.846Z,7.45
2022-10-05T01:10:14.106Z,7.43
2022-10-05T01:11:13.855Z,7.43
2022-10-05T01:12:13.825Z,7.45
2022-10-05T01:13:13.816Z,7.43
2022-10-05T01:14:13.806Z,7.46
2022-10-05T01:15:13.799Z,7.43
2022-10-05T01:16:13.840Z,7.45
2022-10-05T01:17:13.759Z,7.45
2022-10-05T01:18:13.761Z,7.46
2022-10-05T01:19:13.740Z,7.49
2022-10-05T01:20:13.740Z,7.48
2022-10-05T01:21:13.728Z,7.50
2022-10-05T01:22:13.720Z,7.49
2022-10-05T01:23:13.699Z,7.46
2022-10-05T01:24:13.718Z,7.43
2022-10-05T01:25:13.680Z,7.45
2022-10-05T01:26:13.679Z,7.43
2022-10-05T01:27:13.659Z,7.39
2022-10-05T01:28:13.739Z,7.37
2022-10-05T01:29:13.642Z,7.39
2022-10-05T01:30:13.631Z,7.39
2022-10-05T01:31:13.675Z,7.35
2022-10-05T01:32:13.620Z,7.39
2022-10-05T01:33:13.605Z,7.40
2022-10-05T01:34:13.611Z,7.39
2022-10-05T01:35:13.594Z,7.35
2022-10-05T01:36:13.571Z,7.35
2022-10-05T01:37:13.553Z,7.35
2022-10-05T01:38:13.543Z,7.32
2022-10-05T01:39:13.534Z,7.32
2022-10-05T01:40:13.524Z,7.30
2022-10-05T01:41:13.515Z,7.28
2022-10-05T01:42:13.615Z,7.25
2022-10-05T01:43:13.494Z,7.25
2022-10-05T01:44:13.508Z,7.30
2022-10-05T01:45:13.474Z,7.30
2022-10-05T01:46:13.519Z,7.30
2022-10-05T01:47:13.535Z,7.34
2022-10-05T01:48:13.445Z,7.34
2022-10-05T01:49:13.426Z,7.39
2022-10-05T01:50:13.466Z,7.35
2022-10-05T01:51:13.406Z,7.34
2022-10-05T01:52:13.398Z,7.35
2022-10-05T01:53:13.387Z,7.35
2022-10-05T01:54:13.576Z,7.37
2022-10-05T01:55:13.379Z,7.40
2022-10-05T01:56:13.359Z,7.37
2022-10-05T01:57:13.339Z,7.40
2022-10-05T01:58:13.729Z,7.40
2022-10-05T01:59:13.323Z,7.39
2022-10-05T02:00:13.318Z,7.39
2022-10-05T02:01:13.382Z,7.35
2022-10-05T02:02:13.398Z,7.35
2022-10-05T02:03:13.298Z,7.34
2022-10-05T02:04:24.431Z,7.40
2022-10-05T02:05:14.341Z,7.40
2022-10-05T02:06:13.251Z,7.42
2022-10-05T02:07:13.229Z,7.45
2022-10-05T02:08:13.228Z,7.42
2022-10-05T02:09:13.240Z,7.43
2022-10-05T02:10:13.211Z,7.40
2022-10-05T02:11:13.194Z,7.37
2022-10-05T02:12:13.180Z,7.37
2022-10-05T02:13:13.181Z,7.35
2022-10-05T02:14:13.166Z,7.31
2022-10-05T02:15:13.158Z,7.32
2022-10-05T02:16:13.217Z,7.34
2022-10-05T02:17:13.123Z,7.32
2022-10-05T02:18:13.131Z,7.32
2022-10-05T02:19:13.104Z,7.31
2022-10-05T02:20:13.204Z,7.34
2022-10-05T02:21:13.122Z,7.28
2022-10-05T02:22:13.086Z,7.30
2022-10-05T02:23:13.070Z,7.23
2022-10-05T02:24:13.063Z,7.27
2022-10-05T02:25:13.069Z,7.27
2022-10-05T02:26:13.064Z,7.25
2022-10-05T02:27:13.175Z,7.28
2022-10-05T02:28:13.135Z,7.30
2022-10-05T02:29:13.026Z,7.25
2022-10-05T02:30:16.486Z,7.28
2022-10-05T02:31:13.063Z,7.28
2022-10-05T02:32:13.357Z,7.25
2022-10-05T02:33:13.034Z,7.25
2022-10-05T02:34:13.006Z,7.21
2022-10-05T02:35:12.936Z,7.20
2022-10-05T02:36:12.946Z,7.21
2022-10-05T02:37:13.276Z,7.17
2022-10-05T02:38:12.915Z,7.17
2022-10-05T02:39:12.897Z,7.15
2022-10-05T02:40:12.896Z,7.13
2022-10-05T02:41:12.874Z,7.13
2022-10-05T02:42:12.869Z,7.15
2022-10-05T02:43:12.876Z,7.09
2022-10-05T02:44:12.848Z,7.10
2022-10-05T02:45:13.043Z,7.10
2022-10-05T02:46:12.873Z,7.06
2022-10-05T02:47:13.530Z,7.06
2022-10-05T02:48:12.808Z,7.06
2022-10-05T02:49:12.790Z,7.07
2022-10-05T02:50:12.795Z,7.05
2022-10-05T02:51:12.770Z,7.07
2022-10-05T02:52:12.761Z,7.09
2022-10-05T02:53:12.751Z,7.12
2022-10-05T02:54:12.749Z,7.09
2022-10-05T02:55:12.721Z,7.07
2022-10-05T02:56:12.731Z,7.03
2022-10-05T02:57:12.702Z,7.02
2022-10-05T02:58:12.701Z,7.02
2022-10-05T02:59:12.692Z,7.03
2022-10-05T03:00:12.680Z,7.07
2022-10-05T03:01:12.782Z,7.07
2022-10-05T03:02:12.729Z,7.10
2022-10-05T03:03:12.655Z,7.09
2022-10-05T03:04:12.646Z,7.07
2022-10-05T03:05:12.624Z,7.05
2022-10-05T03:06:12.631Z,7.03
2022-10-05T03:07:12.604Z,7.05
2022-10-05T03:08:12.597Z,7.05
2022-10-05T03:09:12.574Z,7.06
2022-10-05T03:10:12.574Z,7.07
2022-10-05T03:11:12.556Z,7.06
2022-10-05T03:12:12.579Z,7.09
2022-10-05T03:13:12.537Z,7.05
2022-10-05T03:14:12.536Z,7.06
2022-10-05T03:15:12.516Z,7.05
2022-10-05T03:16:12.589Z,7.03
2022-10-05T03:17:12.505Z,7.03
2022-10-05T03:18:12.486Z,7.02
2022-10-05T03:19:12.476Z,7.02
2022-10-05T03:20:12.477Z,6.99
2022-10-05T03:21:12.449Z,6.99
2022-10-05T03:22:12.448Z,6.97
2022-10-05T03:23:12.449Z,6.98
2022-10-05T03:24:12.428Z,6.95
2022-10-05T03:25:12.410Z,6.98
2022-10-05T03:26:12.409Z,6.97
2022-10-05T03:27:12.393Z,6.99
2022-10-05T03:28:12.456Z,6.95
2022-10-05T03:29:12.370Z,6.94
2022-10-05T03:30:12.360Z,6.92
2022-10-05T03:31:12.412Z,6.91
2022-10-05T03:32:12.339Z,6.89
2022-10-05T03:33:12.328Z,6.89
2022-10-05T03:34:12.313Z,6.89
2022-10-05T03:35:12.309Z,6.87
2022-10-05T03:36:12.291Z,6.88
2022-10-05T03:37:12.292Z,6.87
2022-10-05T03:38:12.270Z,6.84
2022-10-05T03:39:12.281Z,6.80
2022-10-05T03:40:12.254Z,6.81
2022-10-05T03:41:12.241Z,6.80
2022-10-05T03:42:12.230Z,6.77
2022-10-05T03:43:12.222Z,6.76
2022-10-05T03:44:12.214Z,6.73
2022-10-05T03:45:12.214Z,6.73
2022-10-05T03:46:12.275Z,6.74
2022-10-05T03:47:12.174Z,6.74
2022-10-05T03:48:12.171Z,6.76
2022-10-05T03:49:12.162Z,6.73
2022-10-05T03:50:12.145Z,6.70
2022-10-05T03:51:12.155Z,6.71
2022-10-05T03:52:12.946Z,6.70
2022-10-05T03:53:12.126Z,6.67
2022-10-05T03:54:12.113Z,6.66
2022-10-05T03:55:12.095Z,6.64
2022-10-05T03:56:12.083Z,6.64
2022-10-05T03:57:12.075Z,6.64
2022-10-05T03:58:12.067Z,6.66
2022-10-05T03:59:12.063Z,6.61
2022-10-05T04:00:12.047Z,6.64
2022-10-05T04:01:12.109Z,6.59
2022-10-05T04:02:12.051Z,6.58
2022-10-05T04:03:12.406Z,6.59
2022-10-05T04:04:12.597Z,6.59
2022-10-05T04:05:11.996Z,6.58
2022-10-05T04:06:11.989Z,6.58
2022-10-05T04:07:11.983Z,6.58
2022-10-05T04:08:12.161Z,6.56
2022-10-05T04:09:11.956Z,6.56
2022-10-05T04:10:11.955Z,6.59
2022-10-05T04:11:11.930Z,6.59
2022-10-05T04:12:11.939Z,6.56
2022-10-05T04:13:11.910Z,6.59
2022-10-05T04:14:11.890Z,6.58
2022-10-05T04:15:16.435Z,6.61
2022-10-05T04:16:12.944Z,6.62
2022-10-05T04:17:12.691Z,6.61
2022-10-05T04:18:11.852Z,6.58
2022-10-05T04:19:11.859Z,6.59
2022-10-05T04:20:11.837Z,6.59
2022-10-05T04:21:11.828Z,6.58
2022-10-05T04:22:11.831Z,6.58
2022-10-05T04:23:11.801Z,6.62
2022-10-05T04:24:11.782Z,6.66
2022-10-05T04:25:11.791Z,6.69
2022-10-05T04:26:12.042Z,6.66
2022-10-05T04:27:11.761Z,6.66
2022-10-05T04:28:11.778Z,6.61
2022-10-05T04:29:11.743Z,6.61
2022-10-05T04:30:11.743Z,6.62
2022-10-05T04:31:11.753Z,6.59
2022-10-05T04:32:11.714Z,6.61
2022-10-05T04:33:11.694Z,6.62
2022-10-05T04:34:11.683Z,6.59
2022-10-05T04:35:11.685Z,6.55
2022-10-05T04:36:11.664Z,6.54
2022-10-05T04:37:11.652Z,6.54
2022-10-05T04:38:11.636Z,6.52
2022-10-05T04:39:11.636Z,6.54
2022-10-05T04:40:11.623Z,6.52
2022-10-05T04:41:11.613Z,6.54
2022-10-05T04:42:11.596Z,6.51
2022-10-05T04:43:11.608Z,6.48
2022-10-05T04:44:11.577Z,6.44
2022-10-05T04:45:11.575Z,6.46
2022-10-05T04:46:11.674Z,6.46
2022-10-05T04:47:11.628Z,6.46
2022-10-05T04:48:11.548Z,6.46
2022-10-05T04:49:11.528Z,6.49
2022-10-05T04:50:11.508Z,6.46
2022-10-05T04:51:11.607Z,6.46
2022-10-05T04:52:11.488Z,6.43
2022-10-05T04:53:11.489Z,6.43
2022-10-05T04:54:11.502Z,6.41
2022-10-05T04:55:11.486Z,6.40
2022-10-05T04:56:11.511Z,6.40
2022-10-05T04:57:11.599Z,6.38
2022-10-05T04:58:11.450Z,6.33
2022-10-05T04:59:11.430Z,6.34
2022-10-05T05:00:11.439Z,6.33
2022-10-05T05:01:11.523Z,6.31
2022-10-05T05:02:12.210Z,6.33
2022-10-05T05:03:11.420Z,6.33
2022-10-05T05:04:11.436Z,6.31
2022-10-05T05:05:11.428Z,6.28
2022-10-05T05:06:18.729Z,6.34
2022-10-05T05:07:13.142Z,6.30
2022-10-05T05:08:11.338Z,6.30
2022-10-05T05:09:11.335Z,6.33
2022-10-05T05:10:11.306Z,6.33
2022-10-05T05:11:16.183Z,6.36
2022-10-05T05:12:12.307Z,6.37
2022-10-05T05:13:11.294Z,6.36
2022-10-05T05:14:11.283Z,6.38
2022-10-05T05:15:11.324Z,6.41
2022-10-05T05:16:11.326Z,6.41
2022-10-05T05:17:13.327Z,6.41
2022-10-05T05:18:11.236Z,6.46
2022-10-05T05:19:11.271Z,6.49
2022-10-05T05:20:11.266Z,6.52
2022-10-05T05:21:11.186Z,6.52
2022-10-05T05:22:11.219Z,6.49
2022-10-05T05:23:11.196Z,6.51
2022-10-05T05:24:11.197Z,6.49
2022-10-05T05:25:11.168Z,6.48
2022-10-05T05:26:11.146Z,6.46
2022-10-05T05:27:11.156Z,6.46
2022-10-05T05:28:11.165Z,6.46
2022-10-05T05:29:11.157Z,6.51
2022-10-05T05:30:11.109Z,6.49
2022-10-05T05:31:11.180Z,6.51
2022-10-05T05:32:11.086Z,6.48
2022-10-05T05:33:11.104Z,6.48
2022-10-05T05:34:11.048Z,6.46
2022-10-05T05:35:11.070Z,6.44
2022-10-05T05:36:11.058Z,6.48
2022-10-05T05:37:11.050Z,6.48
2022-10-05T05:38:11.026Z,6.48
2022-10-05T05:39:11.049Z,6.44
2022-10-05T05:40:10.988Z,6.49
2022-10-05T05:41:10.986Z,6.51
2022-10-05T05:42:10.980Z,6.56
2022-10-05T05:43:11.779Z,6.54
2022-10-05T05:44:10.967Z,6.56
2022-10-05T05:45:10.954Z,6.55
2022-10-05T05:46:10.983Z,6.56
2022-10-05T05:47:11.281Z,6.58
2022-10-05T05:48:10.935Z,6.59
2022-10-05T05:49:10.966Z,6.55
2022-10-05T05:50:10.891Z,6.55
2022-10-05T05:51:10.895Z,6.56
2022-10-05T05:52:11.841Z,6.56
2022-10-05T05:53:10.870Z,6.58
2022-10-05T05:54:10.860Z,6.59
2022-10-05T05:55:10.852Z,6.59
2022-10-05T05:56:10.839Z,6.56
2022-10-05T05:57:10.844Z,6.56
2022-10-05T05:58:10.819Z,6.56
2022-10-05T05:59:10.834Z,6.61
2022-10-05T06:00:10.773Z,6.59
2022-10-05T06:01:30.614Z,6.62
2022-10-05T06:02:11.897Z,6.64
2022-10-05T06:03:10.920Z,6.67
2022-10-05T06:04:10.724Z,6.67
2022-10-05T06:05:10.745Z,6.69
2022-10-05T06:06:10.724Z,6.70
2022-10-05T06:07:10.705Z,6.71
2022-10-05T06:08:10.693Z,6.76
2022-10-05T06:09:10.684Z,6.74
2022-10-05T06:10:10.666Z,6.79
2022-10-05T06:11:10.665Z,6.80
2022-10-05T06:12:10.656Z,6.81
2022-10-05T06:13:10.638Z,6.84
2022-10-05T06:14:10.625Z,6.87
2022-10-05T06:15:10.624Z,6.87
2022-10-05T06:16:10.654Z,6.91
2022-10-05T06:17:10.609Z,6.97
2022-10-05T06:18:10.629Z,6.95
2022-10-05T06:19:10.578Z,6.97
2022-10-05T06:20:10.569Z,7.02
2022-10-05T06:21:10.570Z,7.07
2022-10-05T06:22:10.538Z,7.12
2022-10-05T06:23:10.549Z,7.15
2022-10-05T06:24:10.526Z,7.23
2022-10-05T06:25:10.516Z,7.27
2022-10-05T06:26:11.000Z,7.32
2022-10-05T06:27:10.507Z,7.43
2022-10-05T06:28:10.547Z,7.53
2022-10-05T06:29:10.488Z,7.61
2022-10-05T06:30:10.461Z,7.69
2022-10-05T06:31:10.510Z,7.79
2022-10-05T06:32:10.477Z,7.83
2022-10-05T06:33:10.530Z,7.87
2022-10-05T06:34:10.412Z,7.92
2022-10-05T06:35:10.423Z,7.95
2022-10-05T06:36:10.401Z,7.98
2022-10-05T06:37:10.392Z,8.15
2022-10-05T06:38:10.382Z,8.25
2022-10-05T06:39:10.392Z,8.40
2022-10-05T06:40:10.362Z,8.53
2022-10-05T06:41:10.352Z,8.61
2022-10-05T06:42:10.331Z,8.65
2022-10-05T06:43:10.332Z,8.77
2022-10-05T06:44:10.322Z,8.83
2022-10-05T06:45:10.303Z,8.86
2022-10-05T06:46:10.381Z,8.92
2022-10-05T06:47:10.295Z,8.98
2022-10-05T06:48:10.274Z,9.10
2022-10-05T06:49:10.272Z,9.24
2022-10-05T06:50:10.256Z,9.36
2022-10-05T06:51:10.248Z,9.46
2022-10-05T06:52:10.506Z,9.54
2022-10-05T06:53:10.235Z,9.60
2022-10-05T06:54:10.206Z,9.68
2022-10-05T06:55:14.058Z,9.72
2022-10-05T06:56:10.667Z,9.76
2022-10-05T06:57:10.184Z,9.83
2022-10-05T06:58:10.174Z,9.97
2022-10-05T06:59:10.167Z,10.05
2022-10-05T07:00:10.149Z,10.20
2022-10-05T07:01:10.218Z,10.27
2022-10-05T07:02:10.716Z,10.36
2022-10-05T07:03:10.127Z,10.47
2022-10-05T07:04:10.108Z,10.55
2022-10-05T07:05:10.099Z,10.61
2022-10-05T07:06:10.089Z,10.71
2022-10-05T07:07:10.107Z,10.78
2022-10-05T07:08:10.070Z,10.82
2022-10-05T07:09:10.068Z,10.86
2022-10-05T07:10:10.039Z,10.91
2022-10-05T07:11:10.850Z,10.97
2022-10-05T07:12:10.023Z,11.00
2022-10-05T07:13:10.023Z,11.07
2022-10-05T07:14:10.006Z,11.14
2022-10-05T07:15:10.802Z,11.19
2022-10-05T07:16:10.837Z,11.32
2022-10-05T07:17:09.987Z,11.46
2022-10-05T07:18:09.962Z,11.61
2022-10-05T07:19:10.006Z,11.69
2022-10-05T07:20:09.943Z,11.78
2022-10-05T07:21:09.930Z,11.82
2022-10-05T07:22:09.912Z,11.86
2022-10-05T07:23:09.915Z,11.94
2022-10-05T07:24:09.903Z,12.05
2022-10-05T07:25:09.884Z,12.14
2022-10-05T07:26:09.982Z,12.19
2022-10-05T07:27:09.870Z,12.27
2022-10-05T07:28:09.882Z,12.34
2022-10-05T07:29:10.665Z,12.45
2022-10-05T07:30:09.826Z,12.47
2022-10-05T07:31:09.952Z,12.53
2022-10-05T07:32:09.808Z,12.57
2022-10-05T07:33:09.804Z,12.65
2022-10-05T07:34:09.796Z,12.71
2022-10-05T07:35:09.798Z,12.68
2022-10-05T07:36:09.758Z,12.65
2022-10-05T07:37:09.760Z,12.70
2022-10-05T07:38:09.916Z,12.71
2022-10-05T07:39:09.737Z,12.79
2022-10-05T07:40:09.718Z,13.03
2022-10-05T07:41:09.748Z,13.23
2022-10-05T07:42:09.709Z,13.33
2022-10-05T07:43:09.699Z,13.44
2022-10-05T07:44:12.704Z,13.49
2022-10-05T07:45:09.679Z,13.57
2022-10-05T07:46:09.719Z,13.63
2022-10-05T07:47:09.662Z,13.66
2022-10-05T07:48:09.631Z,13.69
2022-10-05T07:49:09.742Z,13.75
2022-10-05T07:50:09.630Z,13.73
2022-10-05T07:51:09.713Z,13.73
2022-10-05T07:52:09.602Z,13.75
2022-10-05T07:53:09.592Z,13.79
2022-10-05T07:54:09.581Z,13.77
2022-10-05T07:55:09.575Z,13.77
2022-10-05T07:56:10.373Z,13.78
2022-10-05T07:57:09.545Z,13.82
2022-10-05T07:58:09.543Z,13.88
2022-10-05T07:59:09.524Z,13.96
2022-10-05T08:00:09.522Z,14.00
2022-10-05T08:01:09.504Z,14.06
2022-10-05T08:02:09.718Z,14.12
2022-10-05T08:03:09.638Z,14.18
2022-10-05T08:04:09.500Z,14.22
2022-10-05T08:05:09.470Z,14.28
2022-10-05T08:06:09.457Z,14.36
2022-10-05T08:07:09.560Z,14.51
2022-10-05T08:08:09.438Z,14.65
2022-10-05T08:09:09.419Z,14.86
2022-10-05T08:10:09.408Z,15.01
2022-10-05T08:11:09.399Z,15.10
2022-10-05T08:12:09.387Z,15.14
2022-10-05T08:13:09.385Z,15.19
2022-10-05T08:14:09.386Z,15.27
2022-10-05T08:15:09.349Z,15.36
2022-10-05T08:16:09.451Z,15.44
2022-10-05T08:17:09.329Z,15.50
2022-10-05T08:18:09.339Z,15.56
2022-10-05T08:19:09.311Z,15.67
2022-10-05T08:20:09.352Z,15.69
2022-10-05T08:21:09.282Z,15.75
2022-10-05T08:22:09.281Z,15.84
2022-10-05T08:23:10.093Z,15.92
2022-10-05T08:24:09.270Z,15.97
2022-10-05T08:25:09.243Z,16.00
2022-10-05T08:26:09.243Z,15.92
2022-10-05T08:27:09.223Z,15.83
2022-10-05T08:28:09.276Z,15.86
2022-10-05T08:29:13.611Z,15.92
2022-10-05T08:30:09.203Z,16.00
2022-10-05T08:31:09.231Z,16.01
2022-10-05T08:32:09.176Z,16.07
2022-10-05T08:33:09.155Z,16.11
2022-10-05T08:34:09.157Z,16.15
2022-10-05T08:35:09.146Z,16.15
2022-10-05T08:36:09.136Z,16.23
2022-10-05T08:37:09.126Z,16.30
2022-10-05T08:38:09.117Z,16.35
2022-10-05T08:39:09.097Z,16.38
2022-10-05T08:40:09.110Z,16.43
2022-10-05T08:41:09.107Z,16.50
2022-10-05T08:42:09.068Z,16.56
2022-10-05T08:43:09.059Z,16.63
2022-10-05T08:44:09.050Z,16.70
2022-10-05T08:45:09.380Z,16.73
2022-10-05T08:46:09.119Z,16.66
2022-10-05T08:47:09.021Z,16.67
2022-10-05T08:48:09.008Z,16.67
2022-10-05T08:49:08.990Z,16.70
2022-10-05T08:50:08.994Z,16.70
2022-10-05T08:51:08.974Z,16.63
2022-10-05T08:52:08.977Z,16.57
2022-10-05T08:53:08.984Z,16.64
2022-10-05T08:54:08.952Z,16.70
2022-10-05T08:55:08.938Z,16.79
2022-10-05T08:56:08.933Z,16.88
2022-10-05T08:57:08.914Z,16.96
2022-10-05T08:58:08.910Z,17.01
2022-10-05T08:59:08.992Z,16.91
2022-10-05T09:00:08.886Z,16.88
2022-10-05T09:01:08.941Z,16.89
2022-10-05T09:02:08.967Z,16.96
2022-10-05T09:03:08.848Z,17.06
2022-10-05T09:04:08.847Z,17.11
2022-10-05T09:05:08.836Z,17.11
2022-10-05T09:06:08.817Z,17.16
2022-10-05T09:07:08.804Z,17.15
2022-10-05T09:08:08.806Z,17.01
2022-10-05T09:09:08.808Z,16.86
2022-10-05T09:10:08.817Z,16.81
2022-10-05T09:11:08.766Z,16.81
2022-10-05T09:12:09.569Z,16.81
2022-10-05T09:13:08.739Z,16.78
2022-10-05T09:14:08.739Z,16.81
2022-10-05T09:15:24.934Z,16.93
2022-10-05T09:16:09.886Z,17.06
2022-10-05T09:17:08.697Z,17.19
2022-10-05T09:18:08.708Z,17.36
2022-10-05T09:19:08.691Z,17.55
2022-10-05T09:20:08.814Z,17.74
2022-10-05T09:21:08.652Z,17.86
2022-10-05T09:22:08.653Z,17.92
2022-10-05T09:23:08.636Z,17.92
2022-10-05T09:24:08.632Z,17.93
2022-10-05T09:25:08.619Z,17.97
2022-10-05T09:26:08.621Z,18.14
2022-10-05T09:27:08.605Z,18.27
2022-10-05T09:28:08.654Z,18.44
2022-10-05T09:29:08.591Z,18.62
2022-10-05T09:30:08.576Z,18.72
2022-10-05T09:31:08.667Z,18.85
2022-10-05T09:32:10.777Z,18.94
2022-10-05T09:33:09.550Z,19.10
2022-10-05T09:34:08.529Z,19.21
2022-10-05T09:35:08.516Z,19.32
2022-10-05T09:36:08.564Z,19.41
2022-10-05T09:37:08.488Z,19.51
2022-10-05T09:38:08.590Z,19.62
2022-10-05T09:39:08.468Z,19.71
2022-10-05T09:40:08.472Z,19.76
2022-10-05T09:41:08.459Z,19.63
2022-10-05T09:42:08.461Z,19.54
2022-10-05T09:43:08.422Z,19.55
2022-10-05T09:44:08.430Z,19.59
2022-10-05T09:45:08.409Z,19.63
2022-10-05T09:46:08.733Z,19.71
2022-10-05T09:47:08.383Z,19.86
2022-10-05T09:48:08.381Z,19.88
2022-10-05T09:49:08.352Z,19.98
2022-10-05T09:50:08.378Z,20.01
2022-10-05T09:51:08.350Z,20.02
2022-10-05T09:52:08.333Z,20.06
2022-10-05T09:53:08.315Z,20.10
2022-10-05T09:54:08.592Z,20.10
2022-10-05T09:55:08.305Z,20.16
2022-10-05T09:56:08.466Z,20.24
2022-10-05T09:57:08.276Z,20.31
2022-10-05T09:58:08.276Z,20.39
2022-10-05T09:59:08.255Z,20.42
2022-10-05T10:01:15.754Z,20.47
2022-10-05T10:02:09.272Z,20.54
2022-10-05T10:03:08.272Z,20.58
2022-10-05T10:04:08.221Z,20.62
2022-10-05T10:05:08.189Z,20.67
2022-10-05T10:06:08.194Z,20.76
2022-10-05T10:07:08.183Z,20.74
2022-10-05T10:08:08.181Z,20.67
2022-10-05T10:09:08.151Z,20.66
2022-10-05T10:10:08.153Z,20.67
2022-10-05T10:11:08.131Z,20.64
2022-10-05T10:12:08.122Z,20.66
2022-10-05T10:13:08.102Z,20.70
2022-10-05T10:14:08.106Z,20.80
2022-10-05T10:15:08.091Z,20.94
2022-10-05T10:16:08.204Z,21.03
2022-10-05T10:17:08.066Z,21.06
2022-10-05T10:18:08.064Z,21.06
2022-10-05T10:19:08.035Z,21.04
2022-10-05T10:20:08.047Z,21.07
2022-10-05T10:21:08.032Z,21.13
2022-10-05T10:22:08.026Z,21.27
2022-10-05T10:23:08.006Z,21.43
2022-10-05T10:24:07.996Z,21.47
2022-10-05T10:25:07.986Z,21.43
2022-10-05T10:26:07.978Z,21.34
2022-10-05T10:27:07.957Z,21.28
2022-10-05T10:28:07.996Z,21.32
2022-10-05T10:29:07.939Z,21.44
2022-10-05T10:30:07.996Z,21.47
2022-10-05T10:31:07.949Z,21.61
2022-10-05T10:32:07.909Z,21.67
2022-10-05T10:33:07.900Z,21.80
2022-10-05T10:34:07.890Z,21.79
2022-10-05T10:35:07.883Z,21.71
2022-10-05T10:36:07.969Z,21.68
2022-10-05T10:37:07.856Z,21.71
2022-10-05T10:38:07.852Z,21.71
2022-10-05T10:39:07.861Z,21.72
2022-10-05T10:40:07.907Z,21.69
2022-10-05T10:41:07.812Z,21.84
2022-10-05T10:42:07.813Z,22.05
2022-10-05T10:43:07.793Z,22.12
2022-10-05T10:44:07.803Z,22.17
2022-10-05T10:45:08.142Z,22.22
2022-10-05T10:46:07.844Z,22.35
2022-10-05T10:47:07.745Z,22.39
2022-10-05T10:48:07.762Z,22.40
2022-10-05T10:49:07.725Z,22.36
2022-10-05T10:50:07.937Z,22.39
2022-10-05T10:51:07.709Z,22.52
2022-10-05T10:52:07.709Z,22.62
2022-10-05T10:53:07.687Z,22.55
2022-10-05T10:54:07.688Z,22.58
2022-10-05T10:55:07.683Z,22.70
2022-10-05T10:56:07.667Z,22.67
2022-10-05T10:57:07.657Z,22.70
2022-10-05T10:58:11.187Z,22.82
2022-10-05T10:59:08.630Z,22.77
2022-10-05T11:00:07.621Z,22.79
2022-10-05T11:01:08.442Z,22.79
2022-10-05T11:02:07.654Z,22.76
2022-10-05T11:03:07.631Z,22.68
2022-10-05T11:04:07.582Z,22.64
2022-10-05T11:05:07.563Z,22.70
2022-10-05T11:06:07.580Z,22.64
2022-10-05T11:07:07.543Z,22.65
2022-10-05T11:08:07.555Z,22.77
2022-10-05T11:09:07.524Z,22.80
2022-10-05T11:10:07.596Z,22.92
2022-10-05T11:11:07.505Z,23.04
2022-10-05T11:12:07.566Z,23.19
2022-10-05T11:13:07.476Z,23.35
2022-10-05T11:14:07.479Z,23.43
2022-10-05T11:15:07.467Z,23.42
2022-10-05T11:17:07.543Z,23.51
2022-10-05T11:18:07.460Z,23.50
2022-10-05T11:19:07.420Z,23.46
2022-10-05T11:20:07.524Z,23.40
2022-10-05T11:21:07.398Z,23.48
2022-10-05T11:22:07.401Z,23.57
2022-10-05T11:23:07.370Z,23.28
2022-10-05T11:24:07.472Z,23.04
2022-10-05T11:25:07.351Z,23.10
2022-10-05T11:26:07.352Z,23.05
2022-10-05T11:27:07.332Z,23.23
2022-10-05T11:28:07.402Z,23.36
2022-10-05T11:29:07.315Z,23.50
2022-10-05T11:30:07.314Z,23.69
2022-10-05T11:31:07.367Z,23.90
2022-10-05T11:32:07.285Z,24.06
2022-10-05T11:33:07.272Z,24.03
2022-10-05T11:34:07.276Z,23.98
2022-10-05T11:35:07.271Z,24.02
2022-10-05T11:36:07.253Z,24.09
2022-10-05T11:37:07.226Z,24.12
2022-10-05T11:38:07.226Z,24.21
2022-10-05T11:39:07.216Z,24.13
2022-10-05T11:40:07.207Z,24.24
2022-10-05T11:41:07.210Z,24.28
2022-10-05T11:42:07.192Z,24.30
2022-10-05T11:43:07.178Z,24.39
2022-10-05T11:44:07.345Z,24.43
2022-10-05T11:45:07.279Z,24.55
2022-10-05T11:46:07.199Z,24.35
2022-10-05T11:47:07.128Z,24.24
2022-10-05T11:48:07.132Z,24.16
2022-10-05T11:49:07.531Z,24.08
2022-10-05T11:50:07.111Z,23.98
2022-10-05T11:51:07.093Z,24.10
2022-10-05T11:52:07.087Z,24.40
2022-10-05T11:53:07.063Z,24.60
2022-10-05T11:54:07.073Z,24.80
2022-10-05T11:55:11.621Z,25.00
2022-10-05T11:56:08.042Z,25.21
2022-10-05T11:57:07.023Z,25.24
2022-10-05T11:58:07.118Z,25.35
2022-10-05T11:59:07.006Z,25.35
2022-10-05T12:00:06.995Z,25.15
2022-10-05T12:01:07.171Z,25.21
2022-10-05T12:02:06.977Z,25.38
2022-10-05T12:03:07.108Z,25.62
2022-10-05T12:04:07.057Z,25.90
2022-10-05T12:05:06.938Z,26.06
2022-10-05T12:06:06.929Z,26.18
2022-10-05T12:07:06.948Z,26.33
2022-10-05T12:08:06.912Z,26.35
2022-10-05T12:09:06.901Z,26.35
2022-10-05T12:10:06.892Z,26.48
2022-10-05T12:11:06.981Z,26.52
2022-10-05T12:12:07.005Z,26.54
2022-10-05T12:13:06.870Z,26.60
2022-10-05T12:14:06.852Z,26.54
2022-10-05T12:15:06.842Z,26.72
2022-10-05T12:16:06.864Z,26.62
2022-10-05T12:17:07.293Z,26.69
2022-10-05T12:18:06.804Z,26.70
2022-10-05T12:19:06.807Z,26.87
2022-10-05T12:20:06.785Z,27.00
2022-10-05T12:21:06.791Z,27.12
2022-10-05T12:22:06.770Z,27.10
2022-10-05T12:23:06.766Z,27.22
2022-10-05T12:24:06.747Z,27.04
2022-10-05T12:25:06.738Z,26.70
2022-10-05T12:26:06.718Z,26.76
2022-10-05T12:27:06.718Z,26.85
2022-10-05T12:28:07.563Z,27.03
2022-10-05T12:29:06.741Z,27.07
2022-10-05T12:30:06.679Z,27.03
2022-10-05T12:31:06.709Z,27.18
2022-10-05T12:32:06.662Z,27.19
2022-10-05T12:33:06.663Z,27.21
2022-10-05T12:34:06.649Z,27.22
2022-10-05T12:35:06.651Z,27.09
2022-10-05T12:36:06.623Z,26.97
2022-10-05T12:37:06.617Z,27.02
2022-10-05T12:38:06.595Z,27.09
2022-10-05T12:39:06.594Z,26.97
2022-10-05T12:40:06.576Z,26.82
2022-10-05T12:41:06.586Z,26.76
2022-10-05T12:42:06.556Z,26.69
2022-10-05T12:43:06.556Z,26.50
2022-10-05T12:44:06.536Z,26.62
2022-10-05T12:45:06.541Z,26.72
2022-10-05T12:46:06.550Z,26.76
2022-10-05T12:47:06.550Z,26.54
2022-10-05T12:48:06.498Z,26.50
2022-10-05T12:49:06.499Z,26.51
2022-10-05T12:50:06.729Z,26.32
2022-10-05T12:51:06.489Z,26.29
2022-10-05T12:52:06.485Z,26.26
2022-10-05T12:53:06.460Z,25.83
2022-10-05T12:54:06.442Z,25.67
2022-10-05T12:55:06.444Z,25.70
2022-10-05T12:56:06.432Z,25.62
2022-10-05T12:57:06.422Z,25.35
2022-10-05T12:58:06.420Z,25.32
2022-10-05T12:59:06.393Z,25.27
2022-10-05T13:00:06.391Z,25.32
2022-10-05T13:01:06.383Z,25.35
2022-10-05T13:02:06.420Z,25.33
2022-10-05T13:03:06.370Z,25.42
2022-10-05T13:04:06.344Z,25.47
2022-10-05T13:05:06.346Z,25.46
2022-10-05T13:06:06.328Z,25.38
2022-10-05T13:07:06.316Z,25.18
2022-10-05T13:08:06.318Z,25.14